Time;durP1;ratioP1;P1;durP2;ratioP2;P2;SDS_P1;SDS_P2;PMS_P1;PMS_P2;Temp;Humidity;BMP_temperature;BMP_pressure;BME280_temperature;BME280_humidity;BME280_pressure;Samples;Min_cycle;Max_cycle;Signal;HPM_P1;HPM_P2
2023/09/19 00:00:24;;;;;;;6.32;3.75;;;;;;;14.01;100.00;95855.81;4989504;28;20019;-66
2023/09/19 00:02:54;;;;;;;5.30;4.10;;;;;;;14.02;100.00;95854.00;4985465;28;20034;-66
2023/09/19 00:05:23;;;;;;;7.78;3.58;;;;;;;14.02;100.00;95851.38;4989549;28;20037;-67
2023/09/19 00:07:51;;;;;;;6.88;3.83;;;;;;;14.05;100.00;95856.34;4978477;28;20026;-66
2023/09/19 00:10:16;;;;;;;10.10;4.10;;;;;;;14.08;100.00;95856.00;4982183;28;20084;-66
2023/09/19 00:12:45;;;;;;;5.13;4.15;;;;;;;14.10;100.00;95854.03;4982994;28;20573;-66
2023/09/19 00:15:11;;;;;;;6.22;3.85;;;;;;;14.10;100.00;95853.22;4988478;28;20407;-66
2023/09/19 00:17:37;;;;;;;5.28;3.75;;;;;;;14.07;100.00;95861.47;4986618;28;20030;-66
2023/09/19 00:20:07;;;;;;;5.95;3.72;;;;;;;14.07;100.00;95858.84;4983579;28;20088;-66
2023/09/19 00:22:33;;;;;;;7.90;3.78;;;;;;;14.07;100.00;95856.19;4978344;28;20435;-67
2023/09/19 00:24:58;;;;;;;6.53;4.07;;;;;;;14.07;100.00;95864.13;4988535;28;20018;-67
2023/09/19 00:27:23;;;;;;;7.05;3.78;;;;;;;14.05;100.00;95872.22;4990119;28;20033;-67
2023/09/19 00:29:49;;;;;;;5.05;3.40;;;;;;;14.06;100.00;95870.41;4987257;28;20050;-66
2023/09/19 00:32:14;;;;;;;8.70;3.85;;;;;;;14.09;100.00;95864.78;4990247;28;20026;-67
2023/09/19 00:34:40;;;;;;;7.38;3.70;;;;;;;14.10;100.00;95874.41;4988272;28;20022;-67
2023/09/19 00:37:05;;;;;;;5.80;3.83;;;;;;;14.10;100.00;95871.75;4988550;28;20033;-67
2023/09/19 00:39:31;;;;;;;6.70;3.58;;;;;;;14.18;100.00;95871.75;4990507;28;20030;-67
2023/09/19 00:41:57;;;;;;;8.13;3.80;;;;;;;14.14;100.00;95873.09;4986676;28;20125;-67
2023/09/19 00:44:23;;;;;;;5.57;4.15;;;;;;;14.14;100.00;95879.19;4986741;28;20077;-66
2023/09/19 00:46:50;;;;;;;8.43;3.63;;;;;;;14.17;100.00;95875.41;4985232;28;20034;-66
2023/09/19 00:49:16;;;;;;;7.15;3.45;;;;;;;14.17;100.00;95867.47;4992305;28;20526;-66
2023/09/19 00:51:41;;;;;;;4.45;3.10;;;;;;;14.15;100.00;95856.19;5008120;28;20055;-66
2023/09/19 00:54:07;;;;;;;6.90;3.53;;;;;;;14.14;100.00;95862.50;4990497;28;20037;-67
2023/09/19 00:56:33;;;;;;;7.97;3.40;;;;;;;14.18;100.00;95853.22;4990780;28;20026;-66
2023/09/19 00:58:59;;;;;;;9.18;3.38;;;;;;;14.20;100.00;95859.19;4986609;28;20420;-66
2023/09/19 01:01:25;;;;;;;3.70;3.40;;;;;;;14.21;100.00;95855.56;4986636;28;20027;-66
2023/09/19 01:03:51;;;;;;;5.03;3.33;;;;;;;14.22;100.00;95854.56;4985575;28;20030;-66
2023/09/19 01:06:17;;;;;;;5.80;3.35;;;;;;;14.18;100.00;95855.88;4986711;28;20081;-67
2023/09/19 01:08:43;;;;;;;5.85;3.40;;;;;;;14.17;100.00;95849.78;4991382;28;20034;-67
2023/09/19 01:11:11;;;;;;;7.22;3.60;;;;;;;14.16;100.00;95844.63;4992781;28;20023;-66
2023/09/19 01:13:52;;;;;;;6.15;3.72;;;;;;;14.16;100.00;95839.31;4988978;28;20508;-67
2023/09/19 01:16:42;;;;;;;3.35;3.15;;;;;;;14.16;100.00;95839.31;4991702;28;20026;-66
2023/09/19 01:19:23;;;;;;;4.78;3.40;;;;;;;14.13;100.00;95827.22;4981046;28;20034;-66
2023/09/19 01:21:59;;;;;;;6.32;3.53;;;;;;;14.15;100.00;95821.78;4986968;28;20121;-66
2023/09/19 01:25:02;;;;;;;4.40;3.30;;;;;;;14.14;100.00;95822.78;4984270;28;20034;-69
2023/09/19 01:27:59;;;;;;;4.40;3.22;;;;;;;14.08;100.00;95808.34;4996254;28;20026;-66
2023/09/19 01:30:32;;;;;;;7.88;3.45;;;;;;;14.07;100.00;95742.38;4992538;28;20018;-66
2023/09/19 01:32:59;;;;;;;6.43;3.25;;;;;;;14.04;100.00;95741.69;4983274;28;20030;-66
2023/09/19 01:35:24;;;;;;;5.97;3.78;;;;;;;14.10;100.00;95753.44;4985093;28;20027;-67
2023/09/19 01:37:50;;;;;;;4.60;3.13;;;;;;;14.10;100.00;95760.56;4993146;28;20037;-67
2023/09/19 01:40:20;;;;;;;6.82;3.33;;;;;;;14.09;100.00;95772.94;4985147;28;20057;-66
2023/09/19 01:43:10;;;;;;;5.13;3.50;;;;;;;14.09;100.00;95778.25;4988862;28;20122;-67
2023/09/19 01:45:41;;;;;;;5.30;3.47;;;;;;;14.14;100.00;95775.94;4989406;28;20061;-66
2023/09/19 01:48:47;;;;;;;4.43;3.55;;;;;;;14.15;100.00;95776.78;4982811;28;20113;-67
2023/09/19 01:51:20;;;;;;;6.25;3.42;;;;;;;14.12;100.00;95782.41;4984784;28;20109;-67
2023/09/19 01:54:07;;;;;;;5.95;3.22;;;;;;;14.16;100.00;95778.44;4983668;28;20487;-67
2023/09/19 01:56:58;;;;;;;4.97;3.50;;;;;;;14.16;100.00;95786.38;4975533;28;20041;-67
2023/09/19 01:59:28;;;;;;;4.65;3.20;;;;;;;14.17;100.00;95782.75;4983652;28;20045;-66
2023/09/19 02:01:55;;;;;;;4.50;3.17;;;;;;;14.20;100.00;95776.31;4983275;28;20041;-66
2023/09/19 02:04:20;;;;;;;4.97;3.22;;;;;;;14.20;100.00;95769.16;4980184;28;20042;-66
2023/09/19 02:06:47;;;;;;;3.53;3.22;;;;;;;14.24;100.00;95772.34;4987073;28;20120;-66
2023/09/19 02:09:16;;;;;;;6.60;3.03;;;;;;;14.18;100.00;95769.34;4983417;28;20083;-66
2023/09/19 02:11:42;;;;;;;7.90;3.22;;;;;;;14.15;100.00;95763.53;4976956;28;20584;-67
2023/09/19 02:14:08;;;;;;;5.47;3.50;;;;;;;14.14;100.00;95781.22;4980979;28;20018;-67
2023/09/19 02:16:34;;;;;;;7.32;3.45;;;;;;;14.10;100.00;95776.44;4986960;28;20113;-66
2023/09/19 02:19:00;;;;;;;4.13;2.75;;;;;;;14.06;100.00;95780.41;4987218;28;20030;-67
2023/09/19 02:21:29;;;;;;;5.32;3.60;;;;;;;14.05;100.00;95790.16;4985500;28;20022;-67
2023/09/19 02:23:54;;;;;;;5.13;3.47;;;;;;;14.03;100.00;95787.66;4977491;28;20096;-66
2023/09/19 02:26:20;;;;;;;5.97;3.50;;;;;;;14.00;100.00;95782.69;4983959;28;20037;-66
2023/09/19 02:28:45;;;;;;;4.57;3.13;;;;;;;13.95;100.00;95792.94;4983586;28;20034;-66
2023/09/19 02:31:11;;;;;;;8.25;3.38;;;;;;;13.95;100.00;95786.84;4984593;28;20089;-66
2023/09/19 02:33:37;;;;;;;6.45;3.55;;;;;;;13.94;100.00;95791.28;4979509;28;20109;-66
2023/09/19 02:36:05;;;;;;;6.40;3.42;;;;;;;13.93;100.00;95786.97;4978987;28;20030;-67
2023/09/19 02:38:31;;;;;;;7.20;3.15;;;;;;;13.91;100.00;95796.91;4988631;28;20031;-66
2023/09/19 02:40:56;;;;;;;5.95;3.20;;;;;;;13.92;100.00;95793.25;4982700;28;20030;-66
2023/09/19 02:43:23;;;;;;;7.15;3.63;;;;;;;13.93;100.00;95794.09;4981585;28;20035;-66
2023/09/19 02:45:55;;;;;;;4.35;3.03;;;;;;;13.89;100.00;95804.19;4978299;28;20066;-66
2023/09/19 02:48:20;;;;;;;6.25;3.30;;;;;;;13.88;100.00;95811.28;4982027;28;20030;-67
2023/09/19 02:50:49;;;;;;;4.68;2.90;;;;;;;13.89;100.00;95815.56;4979816;28;20052;-67
2023/09/19 02:53:14;;;;;;;8.75;3.47;;;;;;;13.89;100.00;95812.13;4985076;28;20049;-66
2023/09/19 02:55:40;;;;;;;6.72;3.22;;;;;;;13.86;100.00;95820.38;4990639;28;20113;-67
2023/09/19 02:58:07;;;;;;;4.35;2.92;;;;;;;13.85;100.00;95824.81;4979647;28;20488;-67
2023/09/19 03:00:35;;;;;;;7.50;3.42;;;;;;;13.81;100.00;95812.91;4983112;28;20034;-66
2023/09/19 03:03:02;;;;;;;6.20;3.20;;;;;;;13.78;100.00;95815.03;4989540;28;20418;-67
2023/09/19 03:05:30;;;;;;;6.32;3.38;;;;;;;13.74;100.00;95811.88;4988692;28;20031;-67
2023/09/19 03:07:56;;;;;;;4.10;2.90;;;;;;;13.70;100.00;95810.53;4979737;28;20026;-67
2023/09/19 03:10:22;;;;;;;5.95;2.70;;;;;;;13.67;100.00;95811.69;4991437;28;20027;-67
2023/09/19 03:12:47;;;;;;;3.03;2.80;;;;;;;13.66;100.00;95819.78;4992974;28;20063;-66
2023/09/19 03:15:15;;;;;;;5.30;3.20;;;;;;;13.66;100.00;95819.78;4981363;28;20107;-67
2023/09/19 03:17:49;;;;;;;6.40;2.90;;;;;;;13.66;100.00;95823.25;4987053;28;20038;-66
2023/09/19 03:20:17;;;;;;;2.90;2.70;;;;;;;13.64;100.00;95814.66;4991483;28;20050;-66
2023/09/19 03:22:43;;;;;;;4.53;3.10;;;;;;;13.60;100.00;95800.09;4992689;28;20046;-66
2023/09/19 03:25:11;;;;;;;4.05;3.25;;;;;;;13.61;100.00;95807.84;4990611;28;20058;-66
2023/09/19 03:27:37;;;;;;;8.10;2.63;;;;;;;13.54;100.00;95812.13;4989788;28;20042;-66
2023/09/19 03:30:13;;;;;;;5.70;3.20;;;;;;;13.48;100.00;95814.56;4994704;28;20041;-66
2023/09/19 03:32:49;;;;;;;4.00;2.88;;;;;;;13.45;100.00;95816.53;4991833;28;20572;-67
2023/09/19 03:35:15;;;;;;;3.70;2.92;;;;;;;13.46;100.00;95826.13;4992681;28;20030;-66
2023/09/19 03:37:44;;;;;;;3.30;3.00;;;;;;;13.44;100.00;95822.81;4988790;28;20465;-66
2023/09/19 03:40:10;;;;;;;9.15;2.92;;;;;;;13.46;100.00;95831.41;4982970;28;20659;-66
2023/09/19 03:42:40;;;;;;;5.00;2.80;;;;;;;13.47;100.00;95832.22;4993567;28;20040;-67
2023/09/19 03:45:12;;;;;;;4.13;3.05;;;;;;;13.48;100.00;95827.78;4993891;28;20042;-65
2023/09/19 03:47:41;;;;;;;5.82;3.15;;;;;;;13.48;100.00;95833.91;4986993;28;20022;-66
2023/09/19 03:50:08;;;;;;;7.60;2.95;;;;;;;13.46;100.00;95831.41;4990854;28;20019;-67
2023/09/19 03:52:34;;;;;;;7.07;3.17;;;;;;;13.46;100.00;95831.41;4992110;28;20057;-67
2023/09/19 03:55:00;;;;;;;5.88;3.38;;;;;;;13.48;100.00;95839.19;4990981;28;20415;-67
2023/09/19 03:57:25;;;;;;;5.22;3.05;;;;;;;13.49;100.00;95838.22;4985650;28;20087;-67
2023/09/19 03:59:53;;;;;;;9.25;3.53;;;;;;;13.54;100.00;95819.22;4983818;28;20058;-66
2023/09/19 04:02:22;;;;;;;6.38;3.55;;;;;;;13.57;100.00;95822.38;4991774;28;20163;-67
2023/09/19 04:04:51;;;;;;;9.27;3.40;;;;;;;13.59;100.00;95827.50;4988234;28;20029;-67
2023/09/19 04:07:18;;;;;;;6.72;3.60;;;;;;;13.59;100.00;95830.16;4991363;28;20031;-67
2023/09/19 04:09:44;;;;;;;5.97;4.00;;;;;;;13.63;100.00;95835.97;4991213;28;20553;-67
2023/09/19 04:12:10;;;;;;;4.68;4.15;;;;;;;13.67;100.00;95840.78;4991777;28;20030;-67
2023/09/19 04:14:35;;;;;;;10.93;4.35;;;;;;;13.70;100.00;95840.47;4994040;28;20026;-66
2023/09/19 04:17:00;;;;;;;8.57;4.40;;;;;;;13.69;100.00;95846.75;4990734;28;20038;-67
2023/09/19 04:19:26;;;;;;;7.70;4.68;;;;;;;13.67;100.00;95838.16;4967138;28;20053;-67
2023/09/19 04:21:51;;;;;;;11.63;3.30;;;;;;;13.66;100.00;95841.78;4984926;28;20041;-67
2023/09/19 04:24:19;;;;;;;8.07;4.32;;;;;;;13.64;100.00;95838.47;4989393;28;20030;-67
2023/09/19 04:26:45;;;;;;;7.85;3.50;;;;;;;13.61;100.00;95841.44;4993310;28;20518;-67
2023/09/19 04:29:11;;;;;;;4.28;3.65;;;;;;;13.58;100.00;95837.28;4992377;28;20030;-67
2023/09/19 04:31:37;;;;;;;8.85;5.05;;;;;;;13.61;100.00;95841.44;4975070;28;20403;-67
2023/09/19 04:34:03;;;;;;;10.35;4.25;;;;;;;13.62;100.00;95845.72;4976189;28;20037;-67
2023/09/19 04:36:29;;;;;;;8.30;4.18;;;;;;;13.65;100.00;95841.94;4993955;28;20026;-66
2023/09/19 04:38:55;;;;;;;8.48;4.05;;;;;;;13.65;100.00;95853.34;4994158;28;20018;-67
2023/09/19 04:41:22;;;;;;;6.63;4.25;;;;;;;13.57;100.00;95848.00;4992681;28;20036;-67
2023/09/19 04:43:49;;;;;;;8.75;4.35;;;;;;;13.60;100.00;95866.22;4979666;28;20142;-67
2023/09/19 04:46:15;;;;;;;7.55;4.20;;;;;;;13.63;100.00;95873.00;4977821;28;20129;-67
2023/09/19 04:48:41;;;;;;;7.22;4.35;;;;;;;13.56;100.00;95871.00;4992390;28;20053;-67
2023/09/19 04:51:06;;;;;;;6.07;4.82;;;;;;;13.55;100.00;95881.72;4992113;28;20023;-67
2023/09/19 04:53:32;;;;;;;7.40;4.70;;;;;;;13.56;100.00;95886.00;4987169;28;20547;-67
2023/09/19 04:55:58;;;;;;;6.97;4.00;;;;;;;13.53;100.00;95894.25;4985897;28;20076;-67
2023/09/19 04:58:23;;;;;;;6.72;4.63;;;;;;;13.47;100.00;95903.63;4988984;28;20445;-67
2023/09/19 05:00:51;;;;;;;9.90;4.15;;;;;;;13.40;100.00;95905.22;4985620;28;20030;-67
2023/09/19 05:03:16;;;;;;;6.72;4.53;;;;;;;13.40;100.00;95900.78;4978513;28;20085;-67
2023/09/19 05:05:42;;;;;;;10.68;4.47;;;;;;;13.42;100.00;95912.03;4984403;28;20022;-67
2023/09/19 05:08:09;;;;;;;7.07;5.10;;;;;;;13.43;100.00;95921.66;4983294;28;20022;-66
2023/09/19 05:10:37;;;;;;;4.88;4.10;;;;;;;13.44;100.00;95923.31;4988653;28;20421;-67
2023/09/19 05:13:04;;;;;;;6.18;4.65;;;;;;;13.48;100.00;95923.81;4974692;28;20092;-67
2023/09/19 05:15:30;;;;;;;4.90;4.40;;;;;;;13.48;100.00;95929.09;4988676;28;20022;-67
2023/09/19 05:17:55;;;;;;;17.15;7.53;;;;;;;13.51;100.00;95928.81;4986367;28;20091;-67
2023/09/19 05:20:32;;;;;;;14.77;8.68;;;;;;;13.53;100.00;95932.13;4980251;28;20506;-67
2023/09/19 05:23:02;;;;;;;10.40;7.38;;;;;;;13.56;100.00;95947.69;4981412;28;20030;-67
2023/09/19 05:25:29;;;;;;;10.23;6.78;;;;;;;13.56;100.00;95937.13;4987940;28;20605;-66
2023/09/19 05:27:57;;;;;;;11.05;7.40;;;;;;;13.54;100.00;95940.88;4981082;28;20031;-67
2023/09/19 05:30:23;;;;;;;9.25;6.32;;;;;;;13.51;100.00;95955.28;4985182;28;20018;-68
2023/09/19 05:32:48;;;;;;;12.85;6.75;;;;;;;13.51;100.00;95965.00;4983420;28;20082;-67
2023/09/19 05:35:14;;;;;;;9.80;6.97;;;;;;;13.52;100.00;95966.66;4992929;28;20060;-67
2023/09/19 05:37:39;;;;;;;10.70;6.20;;;;;;;13.57;100.00;95967.03;4985059;28;20093;-67
2023/09/19 05:40:12;;;;;;;8.30;6.10;;;;;;;13.62;100.00;96030.91;4982295;28;20031;-68
2023/09/19 05:42:39;;;;;;;10.20;6.30;;;;;;;13.60;100.00;95967.56;4988001;28;20088;-67
2023/09/19 05:45:06;;;;;;;6.90;5.53;;;;;;;13.60;100.00;95969.38;4986147;28;20061;-69
2023/09/19 05:47:32;;;;;;;11.35;6.18;;;;;;;13.60;100.00;95975.50;4990730;28;20048;-67
2023/09/19 05:49:57;;;;;;;10.40;6.22;;;;;;;13.61;100.00;95976.34;4992560;28;20104;-68
2023/09/19 05:52:23;;;;;;;9.50;5.93;;;;;;;13.63;100.00;95997.34;4983617;28;20080;-67
2023/09/19 05:54:49;;;;;;;9.55;5.88;;;;;;;13.64;100.00;95993.69;4981099;28;20026;-68
2023/09/19 05:57:15;;;;;;;9.95;5.93;;;;;;;13.70;100.00;96006.31;4986055;28;20038;-68
2023/09/19 05:59:42;;;;;;;8.50;5.18;;;;;;;13.75;100.00;96015.44;5020009;28;20024;-68
2023/09/19 06:02:09;;;;;;;10.13;5.85;;;;;;;13.80;100.00;96065.28;4997636;28;20026;-67
2023/09/19 06:04:35;;;;;;;9.15;6.05;;;;;;;13.84;100.00;96026.94;4979792;28;20032;-67
2023/09/19 06:07:00;;;;;;;8.68;5.40;;;;;;;13.84;100.00;96023.47;4968155;28;20415;-67
2023/09/19 06:09:27;;;;;;;10.95;6.32;;;;;;;13.82;100.00;96038.69;4987192;28;20376;-66
2023/09/19 06:11:55;;;;;;;6.13;5.57;;;;;;;13.81;100.00;96039.63;4988862;28;20029;-66
2023/09/19 06:14:20;;;;;;;14.50;5.90;;;;;;;13.82;100.00;96047.44;4988846;28;20503;-67
2023/09/19 06:16:47;;;;;;;10.52;5.72;;;;;;;13.81;100.00;96052.84;4973578;28;20026;-68
2023/09/19 06:19:12;;;;;;;10.50;6.07;;;;;;;13.85;100.00;96065.63;4989960;28;20032;-67
2023/09/19 06:21:38;;;;;;;10.90;6.78;;;;;;;13.87;100.00;96076.09;4986997;28;20026;-67
2023/09/19 06:24:04;;;;;;;8.35;5.65;;;;;;;13.90;100.00;96149.88;4982102;28;20065;-67
2023/09/19 06:26:30;;;;;;;6.82;5.07;;;;;;;13.91;100.00;96156.84;4982554;28;20045;-67
2023/09/19 06:28:56;;;;;;;9.48;5.20;;;;;;;13.91;100.00;96156.84;4981945;28;20434;-67
2023/09/19 06:31:25;;;;;;;10.73;4.60;;;;;;;13.92;100.00;96157.66;4986110;28;20026;-67
2023/09/19 06:33:51;;;;;;;9.48;5.55;;;;;;;13.97;100.00;96156.22;4986276;28;20019;-67
2023/09/19 06:36:17;;;;;;;9.38;5.95;;;;;;;14.00;100.00;96150.63;4988366;28;20026;-67
2023/09/19 06:38:42;;;;;;;9.65;5.68;;;;;;;14.06;100.00;96158.97;5015681;28;20030;-67
2023/09/19 06:41:09;;;;;;;9.65;5.90;;;;;;;14.12;100.00;96161.00;4985408;28;20030;-66
2023/09/19 06:43:34;;;;;;;11.02;6.28;;;;;;;14.15;100.00;96164.19;4988867;28;20435;-67
2023/09/19 06:46:04;;;;;;;9.02;6.15;;;;;;;14.17;100.00;96161.34;4981684;28;20038;-66
2023/09/19 06:48:30;;;;;;;8.10;5.65;;;;;;;14.21;100.00;96153.94;4986530;28;20100;-66
2023/09/19 06:50:58;;;;;;;11.32;6.45;;;;;;;14.32;100.00;96154.53;4987997;28;20026;-66
2023/09/19 06:53:24;;;;;;;9.45;6.45;;;;;;;14.41;100.00;96157.22;4988267;28;20034;-66
2023/09/19 06:55:50;;;;;;;11.43;5.30;;;;;;;14.45;100.00;96153.28;4990504;28;20042;-67
2023/09/19 06:58:16;;;;;;;10.23;5.97;;;;;;;14.50;100.00;96150.19;4975067;28;20042;-67
2023/09/19 07:00:42;;;;;;;11.18;5.18;;;;;;;14.53;100.00;96152.50;4989435;28;20038;-68
2023/09/19 07:03:11;;;;;;;8.27;5.00;;;;;;;14.53;100.00;96150.72;4982814;28;20022;-66
2023/09/19 07:05:38;;;;;;;7.22;5.10;;;;;;;14.52;100.00;96150.84;4985970;28;20474;-67
2023/09/19 07:08:05;;;;;;;8.57;5.05;;;;;;;14.59;100.00;96152.72;4993178;28;20041;-67
2023/09/19 07:10:32;;;;;;;8.95;4.45;;;;;;;14.59;100.00;96155.38;4990700;28;20050;-67
2023/09/19 07:13:02;;;;;;;5.93;4.57;;;;;;;14.62;100.00;96154.25;4981899;28;20027;-67
2023/09/19 07:15:29;;;;;;;15.40;4.68;;;;;;;14.63;100.00;96142.66;4980440;28;20033;-66
2023/09/19 07:17:56;;;;;;;7.93;4.65;;;;;;;14.66;100.00;96144.16;4991852;28;20442;-67
2023/09/19 07:20:22;;;;;;;7.18;3.95;;;;;;;14.74;100.00;96149.53;4987811;28;20038;-67
2023/09/19 07:22:50;;;;;;;6.57;3.90;;;;;;;14.71;100.00;96133.97;4986421;28;20894;-67
2023/09/19 07:25:16;;;;;;;8.48;4.00;;;;;;;14.63;100.00;96124.09;4985556;28;20526;-67
2023/09/19 07:27:41;;;;;;;8.07;3.80;;;;;;;14.71;100.00;96126.00;4992483;28;20034;-66
2023/09/19 07:30:08;;;;;;;6.18;3.53;;;;;;;14.75;100.00;96111.44;4993267;28;20030;-66
2023/09/19 07:32:36;;;;;;;6.03;3.50;;;;;;;14.75;100.00;96069.06;4991576;28;20030;-67
2023/09/19 07:35:02;;;;;;;5.15;3.70;;;;;;;14.79;100.00;96064.25;4991012;28;20026;-66
2023/09/19 07:37:31;;;;;;;6.57;3.92;;;;;;;14.77;100.00;96056.47;4987750;28;20091;-67
2023/09/19 07:39:56;;;;;;;5.40;3.50;;;;;;;14.84;100.00;96064.63;4986379;28;20026;-66
2023/09/19 07:42:22;;;;;;;6.43;3.72;;;;;;;14.89;100.00;96073.72;4992921;28;20023;-66
2023/09/19 07:44:50;;;;;;;4.95;4.00;;;;;;;14.98;100.00;96066.63;4988609;28;20046;-67
2023/09/19 07:47:16;;;;;;;4.97;3.80;;;;;;;15.06;100.00;96071.16;4986430;28;20033;-67
2023/09/19 07:49:42;;;;;;;4.07;3.70;;;;;;;15.09;100.00;96057.56;4986538;28;20030;-67
2023/09/19 07:52:09;;;;;;;6.68;3.70;;;;;;;15.12;100.00;96059.06;4986705;28;20034;-66
2023/09/19 07:54:35;;;;;;;3.50;3.10;;;;;;;15.13;100.00;96056.25;4980224;28;20030;-67
2023/09/19 07:57:01;;;;;;;5.65;2.92;;;;;;;15.13;100.00;96058.91;4982954;28;20069;-67
2023/09/19 07:59:27;;;;;;;3.33;3.13;;;;;;;15.16;100.00;96066.56;4978580;28;20090;-67
2023/09/19 08:01:53;;;;;;;5.90;3.10;;;;;;;15.23;100.00;96060.59;4983255;28;20561;-67
2023/09/19 08:04:19;;;;;;;4.85;3.35;;;;;;;15.24;100.00;96065.72;4988246;28;20434;-67
2023/09/19 08:06:44;;;;;;;5.05;3.30;;;;;;;15.28;100.00;96069.72;4981257;28;20429;-66
2023/09/19 08:09:11;;;;;;;4.20;2.97;;;;;;;15.30;100.00;96072.22;4992081;28;20054;-67
2023/09/19 08:11:36;;;;;;;4.15;3.65;;;;;;;15.38;100.00;96074.03;4987495;28;20107;-66
2023/09/19 08:14:02;;;;;;;4.68;3.75;;;;;;;15.36;100.00;96073.38;4988768;28;20026;-67
2023/09/19 08:16:28;;;;;;;4.68;3.92;;;;;;;15.32;100.00;96075.53;4987209;28;20095;-67
2023/09/19 08:18:55;;;;;;;4.15;3.75;;;;;;;15.34;100.00;96081.50;4982655;28;20022;-66
2023/09/19 08:21:25;;;;;;;5.13;4.38;;;;;;;15.28;100.00;96077.69;4984855;28;20047;-66
2023/09/19 08:23:51;;;;;;;6.35;5.18;;;;;;;15.32;100.00;96086.97;4978861;28;20034;-67
2023/09/19 08:26:16;;;;;;;5.25;4.68;;;;;;;15.26;100.00;96082.31;5012694;28;20590;-67
2023/09/19 08:28:42;;;;;;;6.50;4.68;;;;;;;15.27;100.00;96086.63;4987840;28;20034;-66
2023/09/19 08:31:08;;;;;;;4.90;4.43;;;;;;;15.23;100.00;96097.72;4989109;28;20629;-67
2023/09/19 08:33:35;;;;;;;4.13;3.83;;;;;;;15.18;100.00;96095.53;4992369;28;20105;-67
2023/09/19 08:36:09;;;;;;;4.60;4.20;;;;;;;15.19;100.00;96105.16;4988018;28;20030;-67
2023/09/19 08:38:35;;;;;;;5.03;4.15;;;;;;;15.17;100.00;96104.50;4983277;28;20022;-67
2023/09/19 08:41:05;;;;;;;4.18;3.88;;;;;;;15.26;100.00;96102.69;4985319;28;20423;-67
2023/09/19 08:43:33;;;;;;;3.65;3.30;;;;;;;15.46;100.00;96108.53;4988629;28;20552;-67
2023/09/19 08:46:19;;;;;;;4.63;3.65;;;;;;;15.53;100.00;96106.06;4987275;28;20065;-67
2023/09/19 08:49:08;;;;;;;4.20;3.90;;;;;;;15.64;100.00;96100.47;4987999;28;20042;-67
2023/09/19 08:51:45;;;;;;;4.40;4.10;;;;;;;15.72;100.00;96097.81;4989177;28;20045;-67
2023/09/19 08:54:25;;;;;;;4.18;3.88;;;;;;;15.76;100.00;96090.38;4984966;28;20057;-67
2023/09/19 08:56:54;;;;;;;3.70;3.40;;;;;;;15.85;100.00;96097.31;4992050;28;20786;-67
2023/09/19 08:59:24;;;;;;;3.35;3.05;;;;;;;15.90;100.00;96096.88;4980265;28;20386;-68
2023/09/19 09:01:53;;;;;;;2.90;2.63;;;;;;;16.02;100.00;96087.56;4984737;28;20034;-67
2023/09/19 09:04:20;;;;;;;2.65;2.50;;;;;;;16.13;100.00;96088.25;4983207;28;20110;-68
2023/09/19 09:06:48;;;;;;;2.60;2.40;;;;;;;16.20;100.00;96075.94;4990900;28;20061;-67
2023/09/19 09:09:14;;;;;;;2.58;2.38;;;;;;;16.37;100.00;96060.81;4987105;28;20516;-67
2023/09/19 09:11:40;;;;;;;2.72;2.63;;;;;;;16.56;100.00;96066.72;4982690;28;20681;-67
2023/09/19 09:14:09;;;;;;;2.58;2.45;;;;;;;16.66;100.00;96093.97;4985567;28;20022;-67
2023/09/19 09:16:35;;;;;;;3.60;2.45;;;;;;;16.84;100.00;96172.69;4988251;28;20105;-67
2023/09/19 09:19:01;;;;;;;2.58;2.22;;;;;;;16.96;100.00;96168.66;4990046;28;20057;-67
2023/09/19 09:21:27;;;;;;;2.50;2.30;;;;;;;17.08;100.00;96186.97;4989337;28;20712;-68
2023/09/19 09:23:53;;;;;;;2.35;2.25;;;;;;;17.22;100.00;96185.41;4989886;28;20159;-67
2023/09/19 09:26:37;;;;;;;2.50;2.30;;;;;;;17.28;100.00;96174.91;4984775;28;20117;-67
2023/09/19 09:29:02;;;;;;;2.67;2.30;;;;;;;17.42;100.00;96156.53;4979909;28;20035;-67
2023/09/19 09:31:27;;;;;;;2.08;1.85;;;;;;;17.41;100.00;96150.41;4976811;28;20015;-68
2023/09/19 09:33:55;;;;;;;2.70;2.17;;;;;;;17.52;100.00;96140.38;4979704;28;20076;-68
2023/09/19 09:36:34;;;;;;;2.22;2.08;;;;;;;17.67;100.00;96132.44;4991206;28;20037;-68
2023/09/19 09:39:15;;;;;;;3.53;2.30;;;;;;;17.70;100.00;96122.28;4982531;28;20026;-67
2023/09/19 09:41:44;;;;;;;3.38;2.20;;;;;;;17.70;100.00;96116.16;4977280;28;20170;-68
2023/09/19 09:44:18;;;;;;;2.42;2.33;;;;;;;17.65;100.00;96113.16;4983142;28;20050;-68
2023/09/19 09:52:00;;;;;;;3.92;2.30;;;;;;;17.81;100.00;96105.06;4985182;28;20165;-67
2023/09/19 09:54:36;;;;;;;3.83;2.42;;;;;;;17.88;100.00;96110.53;4984165;28;20984;-68
2023/09/19 09:57:23;;;;;;;3.20;2.20;;;;;;;17.68;100.00;96108.31;4984222;28;20033;-67
2023/09/19 09:59:55;;;;;;;2.20;2.00;;;;;;;17.44;100.00;96103.97;5023999;28;20052;-68
2023/09/19 10:02:29;;;;;;;3.10;2.00;;;;;;;17.41;100.00;96113.16;4987444;28;20762;-68
2023/09/19 10:04:59;;;;;;;1.98;1.85;;;;;;;17.59;100.00;96109.41;4992895;28;20116;-69
2023/09/19 10:07:32;;;;;;;2.03;1.83;;;;;;;17.72;100.00;96106.97;4977583;28;20053;-68
2023/09/19 10:10:21;;;;;;;2.42;2.22;;;;;;;17.98;100.00;96102.31;4982839;28;20026;-68
2023/09/19 10:12:48;;;;;;;2.60;2.20;;;;;;;18.20;100.00;96102.50;4988544;28;20034;-68
2023/09/19 10:15:15;;;;;;;2.80;2.35;;;;;;;18.03;100.00;96107.94;4984906;28;20042;-68
2023/09/19 10:17:45;;;;;;;3.95;2.42;;;;;;;17.89;100.00;96112.19;4989357;28;20041;-68
2023/09/19 10:22:59;;;;;;;2.33;2.13;;;;;;;18.00;100.00;96122.41;4984945;28;20038;-68
2023/09/19 10:25:28;;;;;;;3.63;2.20;;;;;;;18.17;100.00;96117.84;4986792;28;20549;-68
2023/09/19 10:27:55;;;;;;;2.53;2.25;;;;;;;18.20;100.00;96111.28;4983868;28;20102;-69
2023/09/19 10:30:23;;;;;;;3.45;2.15;;;;;;;18.27;100.00;96108.75;4983259;28;20019;-69
2023/09/19 10:33:07;;;;;;;4.95;2.28;;;;;;;18.36;100.00;96109.50;4983003;28;20129;-69
2023/09/19 10:35:33;;;;;;;2.15;2.03;;;;;;;18.31;100.00;96094.88;4982402;28;20053;-69
2023/09/19 10:38:05;;;;;;;1.90;1.80;;;;;;;18.64;100.00;96093.75;4984743;28;20030;-69
2023/09/19 10:40:35;;;;;;;2.53;1.88;;;;;;;18.96;100.00;96088.22;4986068;28;20037;-70
2023/09/19 10:43:05;;;;;;;2.78;1.88;;;;;;;19.25;100.00;96070.53;4988041;28;20188;-70
2023/09/19 10:45:34;;;;;;;1.63;1.52;;;;;;;19.39;100.00;96072.34;4988598;28;20043;-69
2023/09/19 10:48:03;;;;;;;3.15;1.60;;;;;;;19.47;100.00;96064.22;4986882;28;20474;-69
2023/09/19 10:50:52;;;;;;;1.67;1.58;;;;;;;19.51;100.00;96063.84;4979315;28;20031;-69
2023/09/19 10:53:20;;;;;;;1.88;1.70;;;;;;;19.64;100.00;96063.97;4981554;28;20052;-69
2023/09/19 10:55:53;;;;;;;1.50;1.40;;;;;;;19.82;100.00;96060.06;4982660;28;20022;-69
2023/09/19 10:58:38;;;;;;;1.35;1.25;;;;;;;19.92;100.00;96047.22;4981573;28;20105;-69
2023/09/19 11:01:09;;;;;;;2.58;1.40;;;;;;;20.03;100.00;96040.53;4986471;28;20022;-69
2023/09/19 11:03:37;;;;;;;3.22;1.10;;;;;;;20.02;100.00;96055.75;4990216;28;20462;-69
2023/09/19 11:06:13;;;;;;;1.23;1.13;;;;;;;20.27;100.00;96057.16;4987107;28;20101;-69
2023/09/19 11:09:45;;;;;;;1.35;1.05;;;;;;;20.58;100.00;96053.25;4989362;28;20486;-69
2023/09/19 11:11:52;;;;;;;2.22;1.30;;;;;;;21.03;100.00;96050.22;4993361;28;20611;-69
2023/09/19 11:14:26;;;;;;;1.40;1.20;;;;;;;21.27;100.00;96056.91;4980389;28;20085;-69
2023/09/19 11:17:07;;;;;;;1.15;1.15;;;;;;;21.65;100.00;96062.78;4983181;28;20026;-69
2023/09/19 11:22:58;;;;;;;2.78;0.95;;;;;;;22.12;100.00;96060.19;4980046;28;20034;-69
2023/09/19 11:25:34;;;;;;;2.22;1.00;;;;;;;21.91;100.00;96072.75;4983806;28;20029;-70
2023/09/19 11:28:05;;;;;;;0.90;0.90;;;;;;;22.02;100.00;96090.06;4986339;28;20015;-69
2023/09/19 11:30:32;;;;;;;0.90;0.90;;;;;;;22.40;100.00;96092.16;4986573;28;20023;-70
2023/09/19 11:33:23;;;;;;;0.98;0.90;;;;;;;22.55;100.00;96093.84;4977838;28;20042;-69
2023/09/19 11:36:02;;;;;;;1.05;0.80;;;;;;;22.77;100.00;96094.41;4988702;28;20415;-69
2023/09/19 11:41:20;;;;;;;0.70;0.70;;;;;;;22.09;100.00;96090.91;4978264;28;20027;-70
2023/09/19 11:43:46;;;;;;;2.28;0.80;;;;;;;21.56;100.00;96107.69;4992766;28;20022;-70
2023/09/19 11:46:16;;;;;;;1.27;0.75;;;;;;;21.06;100.00;96118.59;4984324;28;20075;-70